Time;durP1;ratioP1;P1;durP2;ratioP2;P2;SDS_P1;SDS_P2;PMS_P1;PMS_P2;Temp;Humidity;BMP_temperature;BMP_pressure;BME280_temperature;BME280_humidity;BME280_pressure;Samples;Min_cycle;Max_cycle;Signal;HPM_P1;HPM_P2
2022/03/30 00:01:25;;;;;;;8.07;7.30;;;;;;;;;;5100712;28;20309;-55
2022/03/30 00:03:52;;;;;;;8.35;7.55;;;;;;;;;;5100730;28;20212;-55
2022/03/30 00:06:20;;;;;;;7.35;6.65;;;;;;;;;;5100298;28;20562;-55
2022/03/30 00:08:48;;;;;;;8.07;7.28;;;;;;;;;;5100459;28;20203;-55
2022/03/30 00:11:15;;;;;;;8.10;7.30;;;;;;;;;;5100517;28;20292;-55
2022/03/30 00:13:43;;;;;;;7.80;7.00;;;;;;;;;;5100602;28;20294;-55
2022/03/30 00:16:12;;;;;;;7.68;6.97;;;;;;;;;;5100770;28;20249;-55
2022/03/30 00:18:41;;;;;;;7.85;7.05;;;;;;;;;;5100519;28;20223;-54
2022/03/30 00:21:08;;;;;;;7.70;7.00;;;;;;;;;;5100092;28;20286;-55
2022/03/30 00:23:36;;;;;;;8.05;7.32;;;;;;;;;;5100199;28;20298;-55
2022/03/30 00:26:04;;;;;;;8.13;7.32;;;;;;;;;;5100013;28;20298;-55
2022/03/30 00:28:31;;;;;;;7.93;7.10;;;;;;;;;;5099844;28;20254;-55
2022/03/30 00:30:59;;;;;;;8.15;7.35;;;;;;;;;;5099919;28;20306;-55
2022/03/30 00:33:26;;;;;;;7.78;6.97;;;;;;;;;;5100115;28;20405;-55
2022/03/30 00:35:55;;;;;;;8.13;7.32;;;;;;;;;;5099429;28;20280;-55
2022/03/30 00:38:22;;;;;;;7.45;6.75;;;;;;;;;;5100102;28;20298;-55
2022/03/30 00:40:50;;;;;;;7.93;7.15;;;;;;;;;;5099547;28;20666;-55
2022/03/30 00:43:18;;;;;;;7.60;6.90;;;;;;;;;;5099547;28;20235;-55
2022/03/30 00:45:46;;;;;;;7.63;6.93;;;;;;;;;;5099721;28;20312;-55
2022/03/30 00:48:14;;;;;;;8.10;7.30;;;;;;;;;;5099641;28;20223;-55
2022/03/30 00:50:41;;;;;;;7.60;6.90;;;;;;;;;;5099279;28;20557;-55
2022/03/30 00:53:10;;;;;;;7.65;6.95;;;;;;;;;;5099682;28;20242;-55
2022/03/30 00:55:38;;;;;;;8.20;7.40;;;;;;;;;;5098868;28;20294;-55
2022/03/30 00:58:08;;;;;;;7.55;6.85;;;;;;;;;;5099251;28;20286;-55
2022/03/30 01:00:35;;;;;;;8.10;7.30;;;;;;;;;;5099164;28;20199;-55
2022/03/30 01:03:03;;;;;;;8.13;7.30;;;;;;;;;;5099570;28;20283;-55
2022/03/30 01:05:31;;;;;;;8.23;7.43;;;;;;;;;;5098714;28;20671;-55
2022/03/30 01:07:59;;;;;;;8.13;7.35;;;;;;;;;;5098162;28;20227;-55
2022/03/30 01:10:28;;;;;;;7.55;6.75;;;;;;;;;;5099107;28;20204;-55
2022/03/30 01:12:55;;;;;;;7.60;6.88;;;;;;;;;;5099037;28;20692;-55
2022/03/30 01:15:23;;;;;;;8.27;7.47;;;;;;;;;;5098186;28;20255;-55
2022/03/30 01:17:50;;;;;;;7.53;6.82;;;;;;;;;;5099444;28;20582;-55
2022/03/30 01:20:21;;;;;;;8.32;7.55;;;;;;;;;;5098559;28;20307;-54
2022/03/30 01:22:50;;;;;;;7.25;6.55;;;;;;;;;;5098587;28;20256;-55
2022/03/30 01:25:18;;;;;;;8.15;7.35;;;;;;;;;;5099091;28;20344;-55
2022/03/30 01:27:46;;;;;;;8.60;7.75;;;;;;;;;;5099243;28;20203;-55
2022/03/30 01:33:02;;;;;;;7.60;6.90;;;;;;;;;;5098470;28;20428;-55
2022/03/30 01:35:29;;;;;;;8.38;7.57;;;;;;;;;;5098135;28;20195;-55
2022/03/30 01:37:58;;;;;;;8.05;7.35;;;;;;;;;;5097644;28;20254;-55
2022/03/30 01:40:26;;;;;;;8.10;7.38;;;;;;;;;;5099017;28;20295;-55
2022/03/30 01:42:53;;;;;;;8.52;7.72;;;;;;;;;;5097705;28;20230;-55
2022/03/30 01:45:21;;;;;;;8.30;7.50;;;;;;;;;;5097652;28;20207;-55
2022/03/30 01:47:54;;;;;;;8.18;7.38;;;;;;;;;;5099301;28;20286;-55
2022/03/30 01:50:22;;;;;;;7.90;7.20;;;;;;;;;;5098563;28;20239;-55
2022/03/30 01:52:49;;;;;;;8.60;7.70;;;;;;;;;;5098156;28;20224;-55
2022/03/30 01:55:18;;;;;;;8.23;7.43;;;;;;;;;;5098200;28;20313;-55
2022/03/30 01:57:46;;;;;;;8.00;7.20;;;;;;;;;;5078491;28;20654;-55
2022/03/30 02:00:15;;;;;;;8.10;7.30;;;;;;;;;;5095651;28;20295;-55
2022/03/30 02:02:42;;;;;;;8.20;7.40;;;;;;;;;;5097662;28;20200;-55
2022/03/30 02:05:10;;;;;;;7.97;7.18;;;;;;;;;;5097505;28;20286;-55
2022/03/30 02:07:38;;;;;;;8.13;7.32;;;;;;;;;;5097948;28;20556;-55
2022/03/30 02:10:07;;;;;;;8.10;7.30;;;;;;;;;;5098656;28;20321;-55
2022/03/30 02:12:36;;;;;;;7.82;7.10;;;;;;;;;;5098338;28;20318;-55
2022/03/30 02:15:05;;;;;;;7.93;7.13;;;;;;;;;;5098262;28;20630;-55
2022/03/30 02:17:33;;;;;;;8.30;7.50;;;;;;;;;;5097683;28;20200;-55
2022/03/30 02:20:01;;;;;;;8.07;7.30;;;;;;;;;;5098086;28;20290;-55
2022/03/30 02:22:28;;;;;;;8.13;7.32;;;;;;;;;;5098151;28;20302;-55
2022/03/30 02:24:55;;;;;;;8.15;7.35;;;;;;;;;;5097994;28;20243;-55
2022/03/30 02:27:23;;;;;;;8.20;7.40;;;;;;;;;;5098292;28;20626;-55
2022/03/30 02:29:53;;;;;;;8.40;7.60;;;;;;;;;;5097318;28;20204;-55
2022/03/30 02:32:22;;;;;;;8.27;7.47;;;;;;;;;;5097813;28;20315;-55
2022/03/30 02:34:49;;;;;;;8.00;7.30;;;;;;;;;;5097225;28;20299;-55
2022/03/30 02:37:18;;;;;;;8.02;7.32;;;;;;;;;;5097493;28;20302;-55
2022/03/30 02:39:46;;;;;;;8.80;8.00;;;;;;;;;;5097453;28;20227;-55
2022/03/30 02:42:14;;;;;;;8.55;7.75;;;;;;;;;;5096745;28;20282;-55
2022/03/30 02:44:41;;;;;;;8.30;7.50;;;;;;;;;;5097628;28;20539;-55
2022/03/30 02:47:10;;;;;;;8.30;7.50;;;;;;;;;;5097285;28;20645;-55
2022/03/30 02:49:38;;;;;;;8.50;7.70;;;;;;;;;;5097040;28;20597;-55
2022/03/30 02:52:06;;;;;;;8.05;7.25;;;;;;;;;;5096282;28;20341;-55
2022/03/30 02:54:34;;;;;;;8.07;7.35;;;;;;;;;;5097418;28;20495;-55
2022/03/30 02:57:01;;;;;;;8.02;7.32;;;;;;;;;;5097331;28;20246;-55
2022/03/30 02:59:29;;;;;;;8.43;7.63;;;;;;;;;;5095998;28;20230;-55
2022/03/30 03:01:58;;;;;;;9.13;8.23;;;;;;;;;;5096445;28;20539;-55
2022/03/30 03:04:28;;;;;;;8.13;7.32;;;;;;;;;;5096720;28;20211;-55
2022/03/30 03:06:55;;;;;;;8.77;7.93;;;;;;;;;;5097024;28;20550;-55
2022/03/30 03:09:22;;;;;;;8.68;7.78;;;;;;;;;;5096954;28;20278;-55
2022/03/30 03:11:50;;;;;;;8.07;7.38;;;;;;;;;;5095777;28;20329;-55
2022/03/30 03:14:17;;;;;;;8.18;7.38;;;;;;;;;;5096791;28;20282;-55
2022/03/30 03:16:45;;;;;;;8.05;7.32;;;;;;;;;;5096524;28;20294;-55
2022/03/30 03:19:12;;;;;;;8.15;7.38;;;;;;;;;;5096940;28;20337;-55
2022/03/30 03:21:41;;;;;;;8.38;7.57;;;;;;;;;;5096108;28;20291;-54
2022/03/30 03:24:09;;;;;;;8.13;7.43;;;;;;;;;;5096739;28;20283;-54
2022/03/30 03:26:36;;;;;;;8.57;7.78;;;;;;;;;;5079375;28;20278;-54
2022/03/30 03:29:03;;;;;;;8.43;7.63;;;;;;;;;;5096789;28;20626;-54
2022/03/30 03:31:31;;;;;;;8.55;7.75;;;;;;;;;;5096570;28;20290;-55
2022/03/30 03:33:58;;;;;;;8.70;7.88;;;;;;;;;;5095872;28;20371;-55
2022/03/30 03:36:26;;;;;;;8.90;8.07;;;;;;;;;;5096538;28;20485;-55
2022/03/30 03:38:55;;;;;;;8.40;7.60;;;;;;;;;;5096826;28;20211;-54
2022/03/30 03:41:22;;;;;;;8.75;7.95;;;;;;;;;;5096373;28;20234;-54
2022/03/30 03:43:50;;;;;;;8.50;7.70;;;;;;;;;;5095587;28;20235;-55
2022/03/30 03:46:18;;;;;;;7.75;7.05;;;;;;;;;;5095384;28;20582;-54
2022/03/30 03:48:45;;;;;;;8.60;7.80;;;;;;;;;;5095534;28;20298;-55
2022/03/30 03:51:13;;;;;;;8.73;7.93;;;;;;;;;;5096159;28;20287;-54
2022/03/30 03:53:40;;;;;;;8.07;7.38;;;;;;;;;;5096338;28;20233;-55
2022/03/30 03:56:09;;;;;;;8.52;7.72;;;;;;;;;;5094773;28;20302;-55
2022/03/30 03:58:36;;;;;;;8.52;7.72;;;;;;;;;;5094725;28;20239;-55
2022/03/30 04:01:04;;;;;;;8.70;7.90;;;;;;;;;;5095819;28;20527;-54
2022/03/30 04:03:31;;;;;;;8.48;7.68;;;;;;;;;;5095811;28;20282;-55
2022/03/30 04:05:59;;;;;;;9.13;8.27;;;;;;;;;;5094801;28;20283;-55
2022/03/30 04:08:26;;;;;;;8.15;7.45;;;;;;;;;;5095235;28;20306;-55
2022/03/30 04:10:54;;;;;;;8.85;8.05;;;;;;;;;;5095720;28;20634;-55
2022/03/30 04:13:23;;;;;;;8.57;7.78;;;;;;;;;;5095339;28;20416;-54
2022/03/30 04:15:51;;;;;;;8.55;7.75;;;;;;;;;;5095603;28;20250;-54
2022/03/30 04:18:18;;;;;;;7.90;7.20;;;;;;;;;;5095158;28;20282;-54
2022/03/30 04:20:46;;;;;;;8.52;7.72;;;;;;;;;;5095269;28;20264;-54
2022/03/30 04:23:13;;;;;;;8.00;7.30;;;;;;;;;;5095364;28;20604;-54
2022/03/30 04:25:41;;;;;;;8.13;7.43;;;;;;;;;;5094969;28;20295;-54
2022/03/30 04:28:08;;;;;;;8.52;7.63;;;;;;;;;;5094549;28;20282;-55
2022/03/30 04:30:37;;;;;;;8.32;7.63;;;;;;;;;;5094258;28;20519;-55
2022/03/30 04:33:05;;;;;;;8.80;8.00;;;;;;;;;;5093996;28;20318;-55
2022/03/30 04:35:32;;;;;;;8.20;7.40;;;;;;;;;;5094153;28;20683;-55
2022/03/30 04:38:00;;;;;;;8.00;7.30;;;;;;;;;;5094069;28;20299;-54
2022/03/30 04:40:28;;;;;;;7.72;7.03;;;;;;;;;;5093767;28;20289;-54
2022/03/30 04:42:56;;;;;;;7.53;6.93;;;;;;;;;;5092914;28;20378;-55
2022/03/30 04:45:24;;;;;;;8.10;7.40;;;;;;;;;;5096797;28;20650;-55
2022/03/30 04:47:54;;;;;;;8.70;7.90;;;;;;;;;;5097856;28;20528;-55
2022/03/30 04:50:21;;;;;;;7.53;6.88;;;;;;;;;;5096846;28;20633;-55
2022/03/30 04:52:51;;;;;;;7.80;7.10;;;;;;;;;;5095437;28;20474;-55
2022/03/30 04:55:19;;;;;;;7.97;7.18;;;;;;;;;;5096524;28;20516;-54
2022/03/30 04:57:46;;;;;;;7.88;7.18;;;;;;;;;;5096009;28;20199;-55
2022/03/30 05:00:14;;;;;;;8.35;7.57;;;;;;;;;;5094929;28;20548;-54
2022/03/30 05:02:42;;;;;;;8.15;7.40;;;;;;;;;;5094931;28;20294;-55
2022/03/30 05:05:11;;;;;;;8.38;7.68;;;;;;;;;;5095255;28;20286;-54
2022/03/30 05:07:39;;;;;;;8.18;7.38;;;;;;;;;;5094701;28;20200;-54
2022/03/30 05:10:08;;;;;;;7.93;7.22;;;;;;;;;;5094200;28;20261;-54
2022/03/30 05:12:36;;;;;;;7.57;6.88;;;;;;;;;;5094511;28;20598;-55
2022/03/30 05:15:04;;;;;;;7.60;6.93;;;;;;;;;;5095150;28;20306;-54
2022/03/30 05:17:31;;;;;;;7.88;7.18;;;;;;;;;;5078297;28;20331;-54
2022/03/30 05:20:00;;;;;;;7.57;6.88;;;;;;;;;;5094641;28;20289;-54
2022/03/30 05:22:28;;;;;;;7.78;7.07;;;;;;;;;;5093972;28;20191;-54
2022/03/30 05:24:56;;;;;;;7.18;6.57;;;;;;;;;;5095207;28;20214;-55
2022/03/30 05:27:23;;;;;;;7.70;7.00;;;;;;;;;;5093698;28;20458;-54
2022/03/30 05:29:51;;;;;;;7.72;7.00;;;;;;;;;;5095282;28;20227;-54
2022/03/30 05:32:18;;;;;;;7.60;6.90;;;;;;;;;;5095172;28;20295;-54
2022/03/30 05:34:45;;;;;;;8.07;7.38;;;;;;;;;;5094553;28;20303;-55
2022/03/30 05:37:13;;;;;;;7.82;7.10;;;;;;;;;;5093865;28;20290;-54
2022/03/30 05:39:42;;;;;;;6.93;6.32;;;;;;;;;;5093072;28;20192;-55
2022/03/30 05:42:10;;;;;;;7.93;7.22;;;;;;;;;;5093410;28;20200;-55
2022/03/30 05:44:37;;;;;;;7.72;7.03;;;;;;;;;;5093140;28;20196;-55
2022/03/30 05:47:06;;;;;;;7.20;6.50;;;;;;;;;;5092731;28;20195;-55
2022/03/30 05:49:34;;;;;;;7.53;6.90;;;;;;;;;;5092604;28;20223;-55
2022/03/30 05:52:01;;;;;;;7.18;6.57;;;;;;;;;;5093905;28;20642;-54
2022/03/30 05:54:29;;;;;;;7.50;6.90;;;;;;;;;;5093098;28;20525;-54
2022/03/30 05:57:05;;;;;;;7.13;6.53;;;;;;;;;;5092739;28;20432;-54
2022/03/30 05:59:34;;;;;;;7.47;6.78;;;;;;;;;;5091942;28;20308;-54
2022/03/30 06:02:02;;;;;;;7.45;6.75;;;;;;;;;;5092374;28;20283;-55
2022/03/30 06:04:29;;;;;;;7.25;6.55;;;;;;;;;;5094194;28;20249;-54
2022/03/30 06:06:58;;;;;;;7.07;6.47;;;;;;;;;;5094114;28;20200;-54
2022/03/30 06:09:25;;;;;;;7.50;6.90;;;;;;;;;;5094166;28;20268;-55
2022/03/30 06:11:52;;;;;;;6.53;5.97;;;;;;;;;;5093604;28;20426;-54
2022/03/30 06:14:22;;;;;;;7.50;6.80;;;;;;;;;;5094216;28;20369;-54
2022/03/30 06:16:50;;;;;;;6.90;6.30;;;;;;;;;;5093583;28;20196;-54
2022/03/30 06:19:18;;;;;;;6.85;6.25;;;;;;;;;;5094374;28;20645;-55
2022/03/30 06:21:45;;;;;;;6.93;6.32;;;;;;;;;;5093901;28;20249;-55
2022/03/30 06:24:13;;;;;;;6.70;5.80;;;;;;;;;;5093637;28;20279;-55
2022/03/30 06:26:41;;;;;;;7.55;6.85;;;;;;;;;;5094060;28;20298;-55
2022/03/30 06:29:09;;;;;;;7.05;6.45;;;;;;;;;;5093943;28;20231;-54
2022/03/30 06:31:38;;;;;;;7.13;6.43;;;;;;;;;;5094182;28;20294;-54
2022/03/30 06:34:05;;;;;;;6.93;6.32;;;;;;;;;;5093286;28;20323;-54
2022/03/30 06:36:33;;;;;;;6.55;6.03;;;;;;;;;;5092954;28;20191;-54
2022/03/30 06:39:01;;;;;;;6.57;5.97;;;;;;;;;;5092636;28;20451;-55
2022/03/30 06:41:29;;;;;;;7.20;6.50;;;;;;;;;;5093792;28;20199;-55
2022/03/30 06:43:57;;;;;;;7.50;6.80;;;;;;;;;;5093746;28;20526;-54
2022/03/30 06:46:24;;;;;;;6.55;5.95;;;;;;;;;;5093164;28;20294;-54
2022/03/30 06:48:53;;;;;;;7.20;6.50;;;;;;;;;;5093907;28;20539;-54
2022/03/30 06:51:21;;;;;;;7.20;6.60;;;;;;;;;;5092986;28;20282;-54
2022/03/30 06:53:48;;;;;;;6.72;6.03;;;;;;;;;;5093206;28;20322;-54
2022/03/30 06:56:16;;;;;;;6.40;5.80;;;;;;;;;;5093834;28;20405;-54
2022/03/30 06:58:44;;;;;;;7.05;6.35;;;;;;;;;;5093003;28;20195;-54
2022/03/30 07:01:14;;;;;;;7.20;6.50;;;;;;;;;;5093584;28;20278;-54
2022/03/30 07:03:41;;;;;;;7.15;6.13;;;;;;;;;;5092308;28;20583;-54
2022/03/30 07:06:10;;;;;;;6.95;6.30;;;;;;;;;;5091274;28;20225;-54
2022/03/30 07:11:22;;;;;;;6.88;6.00;;;;;;;;;;5084350;28;20597;-54
2022/03/30 07:13:50;;;;;;;6.35;5.75;;;;;;;;;;5093071;28;20322;-54
2022/03/30 07:16:18;;;;;;;6.85;6.05;;;;;;;;;;5092802;28;20208;-54
2022/03/30 07:18:45;;;;;;;6.10;5.22;;;;;;;;;;5092673;28;20199;-54
2022/03/30 07:21:14;;;;;;;6.22;5.63;;;;;;;;;;5092850;28;20285;-54
2022/03/30 07:23:42;;;;;;;7.40;5.90;;;;;;;;;;5093624;28;20286;-54
2022/03/30 07:26:10;;;;;;;6.53;5.90;;;;;;;;;;5093493;28;20287;-54
2022/03/30 07:28:38;;;;;;;6.30;5.70;;;;;;;;;;5092984;28;20233;-54
2022/03/30 07:31:05;;;;;;;6.93;6.22;;;;;;;;;;5093718;28;20476;-55
2022/03/30 07:33:33;;;;;;;6.20;5.60;;;;;;;;;;5093112;28;20230;-54
2022/03/30 07:36:01;;;;;;;6.22;5.63;;;;;;;;;;5091553;28;20608;-54
2022/03/30 07:38:31;;;;;;;5.93;5.32;;;;;;;;;;5092762;28;20211;-54
2022/03/30 07:41:02;;;;;;;5.95;5.35;;;;;;;;;;5090752;28;20195;-54
2022/03/30 07:43:29;;;;;;;5.95;5.30;;;;;;;;;;5092346;28;20203;-54
2022/03/30 07:45:57;;;;;;;6.18;5.68;;;;;;;;;;5092744;28;20278;-55
2022/03/30 07:48:24;;;;;;;6.18;5.68;;;;;;;;;;5092138;28;20210;-55
2022/03/30 07:50:52;;;;;;;7.93;5.88;;;;;;;;;;5091134;28;20233;-54
2022/03/30 07:53:19;;;;;;;6.05;5.35;;;;;;;;;;5092112;28;20223;-54
2022/03/30 07:55:48;;;;;;;6.38;5.78;;;;;;;;;;5092809;28;20548;-54
2022/03/30 07:58:16;;;;;;;5.93;5.43;;;;;;;;;;5092166;28;20454;-54
2022/03/30 08:00:44;;;;;;;6.45;5.85;;;;;;;;;;5092271;28;20666;-54
2022/03/30 08:03:11;;;;;;;5.75;5.25;;;;;;;;;;5092297;28;20202;-54
2022/03/30 08:05:38;;;;;;;5.65;5.10;;;;;;;;;;5092747;28;20318;-54
2022/03/30 08:08:07;;;;;;;6.22;5.63;;;;;;;;;;5093025;28;20206;-54
2022/03/30 08:10:35;;;;;;;5.85;5.13;;;;;;;;;;5092533;28;20506;-54
2022/03/30 08:13:04;;;;;;;6.07;5.47;;;;;;;;;;5092075;28;20203;-54
2022/03/30 08:15:32;;;;;;;6.63;6.13;;;;;;;;;;5092711;28;20231;-54
2022/03/30 08:18:00;;;;;;;12.80;11.70;;;;;;;;;;5093134;28;20590;-54
2022/03/30 08:23:12;;;;;;;11.80;10.75;;;;;;;;;;5095546;28;20195;-54
2022/03/30 08:25:40;;;;;;;11.05;10.05;;;;;;;;;;5096847;28;20290;-54
2022/03/30 08:28:09;;;;;;;11.27;10.38;;;;;;;;;;5096507;28;20283;-54
2022/03/30 08:30:36;;;;;;;10.80;9.90;;;;;;;;;;5095834;28;20203;-54
2022/03/30 08:33:04;;;;;;;10.60;9.70;;;;;;;;;;5095488;28;20311;-54
2022/03/30 08:35:32;;;;;;;9.93;9.13;;;;;;;;;;5095908;28;20219;-54
2022/03/30 08:38:00;;;;;;;10.27;9.32;;;;;;;;;;5096122;28;20538;-54
2022/03/30 08:40:27;;;;;;;10.10;9.20;;;;;;;;;;5096292;28;20282;-54
2022/03/30 08:42:55;;;;;;;9.82;8.98;;;;;;;;;;5095947;28;20199;-54
2022/03/30 08:45:25;;;;;;;10.02;9.20;;;;;;;;;;5095052;28;20306;-54
2022/03/30 08:47:52;;;;;;;9.63;8.73;;;;;;;;;;5095893;28;20196;-54
2022/03/30 08:50:21;;;;;;;10.05;9.15;;;;;;;;;;5095846;28;20325;-54
2022/03/30 08:52:49;;;;;;;9.60;8.60;;;;;;;;;;5096397;28;20218;-54
2022/03/30 08:55:19;;;;;;;9.00;8.10;;;;;;;;;;5095322;28;20516;-54
2022/03/30 08:57:46;;;;;;;9.98;9.07;;;;;;;;;;5096321;28;20666;-54
2022/03/30 09:00:16;;;;;;;9.15;8.30;;;;;;;;;;5095150;28;20298;-54
2022/03/30 09:02:47;;;;;;;9.65;8.75;;;;;;;;;;5094293;28;20258;-54
2022/03/30 09:05:16;;;;;;;9.10;8.30;;;;;;;;;;5094641;28;20199;-54
2022/03/30 09:07:44;;;;;;;9.60;8.65;;;;;;;;;;5095513;28;20691;-54
2022/03/30 09:10:14;;;;;;;9.93;9.02;;;;;;;;;;5094972;28;20294;-54
2022/03/30 09:12:43;;;;;;;8.85;8.15;;;;;;;;;;5095200;28;20665;-54
2022/03/30 09:15:11;;;;;;;9.45;8.50;;;;;;;;;;5095278;28;20572;-54
2022/03/30 09:17:39;;;;;;;8.70;7.90;;;;;;;;;;5095444;28;20204;-54
2022/03/30 09:20:10;;;;;;;9.18;8.32;;;;;;;;;;5095003;28;20290;-54
2022/03/30 09:22:42;;;;;;;9.32;8.48;;;;;;;;;;5093695;28;20567;-54
2022/03/30 09:25:11;;;;;;;9.80;9.00;;;;;;;;;;5093774;28;20278;-54
2022/03/30 09:27:41;;;;;;;9.10;8.20;;;;;;;;;;5094399;28;20199;-55
2022/03/30 09:30:09;;;;;;;9.82;8.82;;;;;;;;;;5093642;28;20195;-54
2022/03/30 09:32:38;;;;;;;8.77;7.88;;;;;;;;;;5093961;28;20299;-54
2022/03/30 09:35:06;;;;;;;8.93;8.13;;;;;;;;;;5094970;28;20220;-55
2022/03/30 09:37:35;;;;;;;8.55;7.75;;;;;;;;;;5095071;28;20215;-54
2022/03/30 09:40:11;;;;;;;8.73;7.93;;;;;;;;;;5095190;28;20231;-55
2022/03/30 09:42:39;;;;;;;8.60;7.80;;;;;;;;;;5095386;28;20617;-54
2022/03/30 09:45:07;;;;;;;8.90;8.20;;;;;;;;;;5095944;28;20196;-55
2022/03/30 09:47:39;;;;;;;8.88;8.07;;;;;;;;;;5095864;28;20191;-55
2022/03/30 09:50:09;;;;;;;8.30;7.50;;;;;;;;;;5095808;28;20388;-55
2022/03/30 09:52:38;;;;;;;8.77;7.97;;;;;;;;;;5095809;28;20199;-54
2022/03/30 09:55:07;;;;;;;8.10;7.40;;;;;;;;;;5095785;28;20283;-54
2022/03/30 09:57:40;;;;;;;8.65;7.85;;;;;;;;;;5095117;28;20200;-54
2022/03/30 10:00:08;;;;;;;8.18;7.40;;;;;;;;;;5095944;28;20639;-54
2022/03/30 10:02:37;;;;;;;7.35;6.65;;;;;;;;;;5095673;28;20298;-55
2022/03/30 10:05:05;;;;;;;8.20;7.50;;;;;;;;;;5094583;28;20235;-54
2022/03/30 10:07:34;;;;;;;7.85;7.15;;;;;;;;;;5092023;28;20211;-54
2022/03/30 10:10:04;;;;;;;8.32;7.53;;;;;;;;;;5094555;28;20208;-54
2022/03/30 10:12:32;;;;;;;8.30;7.50;;;;;;;;;;5095482;28;20293;-55
2022/03/30 10:14:59;;;;;;;8.05;7.35;;;;;;;;;;5095012;28;20626;-55
2022/03/30 10:17:28;;;;;;;7.95;7.25;;;;;;;;;;5095282;28;20204;-55
2022/03/30 10:19:58;;;;;;;8.23;7.53;;;;;;;;;;5094091;28;20203;-55
2022/03/30 10:22:36;;;;;;;8.10;7.40;;;;;;;;;;5092952;28;20200;-55
2022/03/30 10:25:13;;;;;;;7.85;7.13;;;;;;;;;;5093135;28;20321;-55
2022/03/30 10:27:45;;;;;;;7.90;7.20;;;;;;;;;;5092897;28;20282;-54
2022/03/30 10:30:12;;;;;;;7.05;6.45;;;;;;;;;;5092881;28;20614;-54
2022/03/30 10:32:40;;;;;;;7.60;6.93;;;;;;;;;;5091820;28;20290;-54
2022/03/30 10:35:09;;;;;;;7.20;6.60;;;;;;;;;;5092405;28;20220;-55
2022/03/30 10:37:38;;;;;;;7.05;6.43;;;;;;;;;;5092244;28;20286;-55
2022/03/30 10:40:12;;;;;;;7.60;6.90;;;;;;;;;;5092311;28;20198;-55
2022/03/30 10:42:59;;;;;;;7.88;7.18;;;;;;;;;;5092391;28;20311;-54
2022/03/30 10:45:27;;;;;;;6.82;6.22;;;;;;;;;;5092985;28;20418;-54
2022/03/30 10:48:07;;;;;;;7.47;6.68;;;;;;;;;;5092234;28;20282;-54
2022/03/30 10:50:35;;;;;;;7.18;6.47;;;;;;;;;;5092342;28;20456;-54
2022/03/30 10:53:02;;;;;;;7.32;6.70;;;;;;;;;;5091675;28;20242;-54
2022/03/30 10:55:38;;;;;;;7.18;6.47;;;;;;;;;;5091706;28;20426;-55
2022/03/30 10:58:07;;;;;;;7.30;6.70;;;;;;;;;;5092681;28;20215;-55
2022/03/30 11:00:36;;;;;;;6.78;6.18;;;;;;;;;;5092017;28;20469;-55
2022/03/30 11:03:08;;;;;;;6.88;6.25;;;;;;;;;;5092692;28;20282;-55
2022/03/30 11:05:36;;;;;;;7.60;6.90;;;;;;;;;;5090954;28;20257;-54
2022/03/30 11:08:04;;;;;;;6.93;6.32;;;;;;;;;;5091425;28;20310;-55
2022/03/30 11:10:45;;;;;;;6.78;6.18;;;;;;;;;;5091561;28;20203;-55
2022/03/30 11:13:14;;;;;;;6.47;5.88;;;;;;;;;;5092337;28;20211;-55
2022/03/30 11:16:00;;;;;;;6.80;6.20;;;;;;;;;;5092905;28;20318;-54
2022/03/30 11:18:28;;;;;;;6.30;5.70;;;;;;;;;;5093207;28;20306;-54
2022/03/30 11:21:15;;;;;;;6.60;6.00;;;;;;;;;;5091657;28;20257;-54
2022/03/30 11:23:55;;;;;;;6.32;5.75;;;;;;;;;;5091401;28;20214;-54
2022/03/30 11:26:23;;;;;;;6.10;5.60;;;;;;;;;;5091348;28;20652;-55
2022/03/30 11:28:52;;;;;;;6.25;5.75;;;;;;;;;;5092600;28;20469;-55
2022/03/30 11:31:23;;;;;;;6.53;5.93;;;;;;;;;;5091067;28;20415;-54
2022/03/30 11:34:05;;;;;;;6.38;5.88;;;;;;;;;;5090414;28;20207;-55
2022/03/30 11:36:32;;;;;;;5.65;5.15;;;;;;;;;;5089900;28;20751;-55
2022/03/30 11:39:01;;;;;;;5.93;5.43;;;;;;;;;;5089689;28;20290;-55
2022/03/30 11:41:29;;;;;;;5.53;5.05;;;;;;;;;;5089879;28;20226;-55
2022/03/30 11:46:44;;;;;;;6.10;5.50;;;;;;;;;;5090364;28;20207;-55
2022/03/30 11:49:13;;;;;;;5.03;4.63;;;;;;;;;;5091780;28;20741;-55
2022/03/30 11:51:40;;;;;;;5.35;4.85;;;;;;;;;;5091345;28;20207;-54
2022/03/30 11:54:11;;;;;;;5.35;4.85;;;;;;;;;;5093927;28;20257;-54
2022/03/30 11:56:39;;;;;;;5.57;5.07;;;;;;;;;;5095399;28;20680;-54
2022/03/30 11:59:08;;;;;;;5.40;4.90;;;;;;;;;;5096096;28;20298;-55
2022/03/30 12:01:36;;;;;;;5.80;5.30;;;;;;;;;;5095964;28;20290;-54
2022/03/30 12:04:04;;;;;;;5.07;4.68;;;;;;;;;;5095834;28;20209;-55
2022/03/30 12:06:31;;;;;;;5.25;4.85;;;;;;;;;;5095869;28;20264;-55
2022/03/30 12:08:59;;;;;;;5.32;4.82;;;;;;;;;;5096314;28;20302;-55
2022/03/30 12:11:29;;;;;;;5.07;4.57;;;;;;;;;;5096902;28;20306;-54
2022/03/30 12:13:57;;;;;;;4.80;4.40;;;;;;;;;;5096935;28;20203;-54
2022/03/30 12:16:28;;;;;;;4.50;4.10;;;;;;;;;;5095815;28;20454;-54
2022/03/30 12:18:56;;;;;;;4.32;4.03;;;;;;;;;;5096408;28;20204;-54
2022/03/30 12:21:24;;;;;;;4.40;4.03;;;;;;;;;;5095748;28;20207;-55
2022/03/30 12:23:55;;;;;;;4.88;4.47;;;;;;;;;;5095687;28;20301;-55
2022/03/30 12:26:22;;;;;;;13.82;12.43;;;;;;;;;;5095479;28;20303;-55
2022/03/30 12:28:50;;;;;;;55.22;49.20;;;;;;;;;;5095492;28;20282;-55
2022/03/30 12:31:17;;;;;;;49.38;43.97;;;;;;;;;;5094726;28;20546;-54
2022/03/30 12:33:51;;;;;;;41.28;36.78;;;;;;;;;;5091819;28;20192;-54
2022/03/30 12:36:20;;;;;;;40.63;36.30;;;;;;;;;;5092558;28;20514;-54
2022/03/30 12:38:49;;;;;;;38.35;34.15;;;;;;;;;;5093608;28;20469;-54
2022/03/30 12:41:24;;;;;;;35.75;31.95;;;;;;;;;;5095513;28;20264;-54
2022/03/30 12:43:59;;;;;;;34.78;31.08;;;;;;;;;;5093994;28;20585;-55
2022/03/30 12:46:26;;;;;;;33.65;30.10;;;;;;;;;;5093839;28;20238;-54
2022/03/30 12:48:55;;;;;;;33.35;29.85;;;;;;;;;;5094850;28;20294;-54
2022/03/30 12:51:23;;;;;;;31.95;28.55;;;;;;;;;;5094467;28;20315;-54
2022/03/30 12:53:51;;;;;;;32.72;29.08;;;;;;;;;;5093420;28;20327;-54
2022/03/30 12:56:20;;;;;;;30.63;27.42;;;;;;;;;;5093538;28;20227;-54
2022/03/30 12:58:51;;;;;;;29.63;26.52;;;;;;;;;;5074266;28;20292;-54
2022/03/30 13:01:36;;;;;;;29.35;26.25;;;;;;;;;;5093106;28;20192;-54
2022/03/30 13:04:18;;;;;;;27.92;24.95;;;;;;;;;;5093466;28;20261;-54
2022/03/30 13:07:00;;;;;;;27.98;24.98;;;;;;;;;;5093516;28;20199;-54
2022/03/30 13:09:28;;;;;;;25.90;23.13;;;;;;;;;;5093504;28;20246;-54
2022/03/30 13:11:57;;;;;;;26.40;23.60;;;;;;;;;;5094598;28;20655;-54
2022/03/30 13:14:26;;;;;;;24.95;22.42;;;;;;;;;;5094794;28;20280;-54
2022/03/30 13:16:58;;;;;;;24.67;22.13;;;;;;;;;;5094495;28;20251;-55
2022/03/30 13:19:27;;;;;;;25.50;22.90;;;;;;;;;;5094266;28;20663;-55
2022/03/30 13:21:58;;;;;;;25.67;22.58;;;;;;;;;;5094313;28;20666;-54
2022/03/30 13:24:26;;;;;;;25.60;22.92;;;;;;;;;;5094641;28;20299;-54
2022/03/30 13:26:54;;;;;;;27.13;24.35;;;;;;;;;;5093144;28;20554;-54
2022/03/30 13:29:21;;;;;;;26.95;23.98;;;;;;;;;;5092957;28;20641;-54
2022/03/30 13:31:49;;;;;;;26.42;23.60;;;;;;;;;;5093891;28;20639;-54
2022/03/30 13:34:18;;;;;;;26.13;23.33;;;;;;;;;;5094137;28;20370;-54
2022/03/30 13:36:47;;;;;;;27.25;24.45;;;;;;;;;;5094275;28;20620;-54
2022/03/30 13:39:16;;;;;;;28.98;25.80;;;;;;;;;;5094391;28;20283;-54
2022/03/30 13:41:44;;;;;;;28.05;25.15;;;;;;;;;;5094211;28;20206;-54
2022/03/30 13:44:12;;;;;;;27.00;24.15;;;;;;;;;;5094339;28;20204;-54
2022/03/30 13:46:41;;;;;;;35.40;31.85;;;;;;;;;;5092334;28;20279;-54
2022/03/30 13:49:09;;;;;;;34.35;30.42;;;;;;;;;;5091169;28;20619;-54
2022/03/30 13:51:37;;;;;;;33.00;29.42;;;;;;;;;;5092825;28;20344;-54
2022/03/30 13:54:06;;;;;;;32.95;29.45;;;;;;;;;;5093565;28;20253;-55
2022/03/30 13:56:33;;;;;;;30.48;27.30;;;;;;;;;;5091483;28;20231;-55
2022/03/30 13:59:01;;;;;;;31.13;27.83;;;;;;;;;;5091111;28;20334;-54
2022/03/30 14:01:32;;;;;;;29.65;26.55;;;;;;;;;;5091847;28;20721;-54
2022/03/30 14:04:00;;;;;;;29.52;26.23;;;;;;;;;;5091939;28;20257;-55
2022/03/30 14:06:27;;;;;;;29.20;26.33;;;;;;;;;;5091231;28;20294;-54
2022/03/30 14:08:54;;;;;;;29.55;26.45;;;;;;;;;;5091221;28;20662;-54
2022/03/30 14:11:23;;;;;;;27.75;24.92;;;;;;;;;;5091663;28;20298;-54
2022/03/30 14:13:51;;;;;;;26.73;23.90;;;;;;;;;;5091035;28;20800;-55
2022/03/30 14:16:18;;;;;;;28.25;25.40;;;;;;;;;;5090517;28;20231;-54
2022/03/30 14:18:45;;;;;;;27.05;24.25;;;;;;;;;;5091492;28;20345;-54
2022/03/30 14:21:13;;;;;;;27.75;24.85;;;;;;;;;;5091518;28;20286;-55
2022/03/30 14:23:41;;;;;;;25.75;23.08;;;;;;;;;;5091179;28;20294;-54
2022/03/30 14:26:08;;;;;;;25.58;22.80;;;;;;;;;;5091003;28;20202;-54
2022/03/30 14:28:37;;;;;;;24.17;21.73;;;;;;;;;;5091219;28;20595;-55
2022/03/30 14:31:05;;;;;;;22.33;20.05;;;;;;;;;;5092349;28;20200;-54
2022/03/30 14:33:32;;;;;;;22.13;19.88;;;;;;;;;;5091567;28;20507;-54
2022/03/30 14:36:00;;;;;;;22.30;19.85;;;;;;;;;;5092416;28;20219;-54
2022/03/30 14:38:28;;;;;;;21.02;18.83;;;;;;;;;;5091383;28;20199;-55
2022/03/30 14:40:56;;;;;;;20.02;18.02;;;;;;;;;;5090946;28;20200;-54
2022/03/30 14:43:24;;;;;;;20.70;18.52;;;;;;;;;;5091984;28;20311;-54
2022/03/30 14:45:53;;;;;;;19.70;17.67;;;;;;;;;;5091661;28;20317;-54
2022/03/30 14:48:21;;;;;;;18.08;16.17;;;;;;;;;;5091064;28;20478;-54
2022/03/30 14:50:49;;;;;;;17.17;15.50;;;;;;;;;;5091883;28;20359;-54
2022/03/30 14:53:17;;;;;;;17.08;15.30;;;;;;;;;;5092109;28;20486;-54
2022/03/30 14:55:44;;;;;;;16.83;14.57;;;;;;;;;;5090113;28;20722;-54
2022/03/30 14:58:12;;;;;;;15.65;14.07;;;;;;;;;;5089199;28;20275;-54